createdAt,value
2018-05-02T00:00:24.601Z,29.00
2018-05-02T00:02:54.102Z,28.00
2018-05-02T00:05:22.933Z,27.20
2018-05-02T00:07:53.041Z,27.20
2018-05-02T00:10:22.085Z,26.40
2018-05-02T00:12:51.540Z,28.80
2018-05-02T00:15:21.649Z,28.40
2018-05-02T00:17:51.039Z,27.00
2018-05-02T00:20:20.669Z,26.60
2018-05-02T00:22:50.459Z,27.20
2018-05-02T00:25:20.242Z,27.40
2018-05-02T00:27:50.172Z,29.00
2018-05-02T00:30:19.591Z,28.20
2018-05-02T00:32:48.361Z,27.80
2018-05-02T00:35:18.007Z,28.20
2018-05-02T00:37:47.440Z,28.80
2018-05-02T00:40:16.768Z,28.20
2018-05-02T00:42:46.356Z,27.80
2018-05-02T00:45:16.025Z,28.80
2018-05-02T00:47:45.084Z,30.00
2018-05-02T00:50:14.059Z,28.80
2018-05-02T00:52:42.696Z,30.00
2018-05-02T00:55:12.340Z,29.20
2018-05-02T00:57:41.622Z,27.20
2018-05-02T01:00:11.415Z,29.20
2018-05-02T01:02:40.682Z,28.40
2018-05-02T01:05:10.326Z,28.60
2018-05-02T01:07:39.283Z,29.20
2018-05-02T01:10:09.231Z,29.00
2018-05-02T01:12:38.397Z,30.00
2018-05-02T01:15:07.481Z,28.00
2018-05-02T01:17:36.444Z,30.20
2018-05-02T01:20:05.894Z,28.40
2018-05-02T01:22:35.483Z,27.20
2018-05-02T01:25:04.537Z,29.20
2018-05-02T01:27:33.929Z,30.20
2018-05-02T01:30:03.889Z,28.60
2018-05-02T01:32:33.680Z,30.20
2018-05-02T01:35:02.937Z,30.00
2018-05-02T01:37:32.282Z,29.60
2018-05-02T01:40:01.768Z,30.60
2018-05-02T01:42:31.915Z,29.40
2018-05-02T01:45:01.935Z,30.20
2018-05-02T01:47:31.549Z,30.00
2018-05-02T01:50:00.762Z,32.40
2018-05-02T01:52:30.264Z,33.20
2018-05-02T01:54:59.491Z,33.20
2018-05-02T01:57:29.563Z,35.20
2018-05-02T01:59:58.676Z,33.80
2018-05-02T02:02:28.613Z,35.40
2018-05-02T02:04:57.979Z,32.80
2018-05-02T02:07:27.454Z,33.60
2018-05-02T02:09:56.651Z,32.80
2018-05-02T02:12:25.506Z,34.00
2018-05-02T02:14:55.158Z,33.60
2018-05-02T02:17:23.928Z,35.00
2018-05-02T02:19:53.139Z,34.60
2018-05-02T02:22:22.663Z,33.00
2018-05-02T02:24:52.060Z,34.00
2018-05-02T02:27:22.020Z,34.00
2018-05-02T02:29:50.685Z,35.00
2018-05-02T02:32:19.263Z,34.60
2018-05-02T02:34:48.657Z,34.00
2018-05-02T02:37:18.465Z,34.00
2018-05-02T02:39:48.150Z,34.40
2018-05-02T02:42:17.621Z,36.60
2018-05-02T02:44:47.091Z,37.20
2018-05-02T02:47:16.869Z,35.80
2018-05-02T02:49:46.393Z,36.40
2018-05-02T02:52:15.459Z,34.20
2018-05-02T02:54:44.671Z,35.60
2018-05-02T02:57:14.139Z,33.00
2018-05-02T02:59:42.977Z,37.00
2018-05-02T03:02:12.220Z,36.80
2018-05-02T03:04:41.363Z,35.20
2018-05-02T03:07:10.757Z,35.40
2018-05-02T03:09:39.752Z,34.80
2018-05-02T03:12:09.342Z,34.60
2018-05-02T03:14:38.856Z,34.00
2018-05-02T03:17:08.701Z,33.00
2018-05-02T03:19:38.045Z,32.40
2018-05-02T03:22:07.233Z,35.00
2018-05-02T03:24:37.396Z,33.40
2018-05-02T03:27:06.401Z,33.80
2018-05-02T03:29:36.350Z,33.00
2018-05-02T03:32:05.677Z,32.20
2018-05-02T03:34:34.634Z,33.00
2018-05-02T03:37:04.647Z,33.00
2018-05-02T03:39:34.182Z,30.80
2018-05-02T03:42:03.250Z,31.80
2018-05-02T03:44:33.193Z,31.00
2018-05-02T03:47:02.638Z,30.80
2018-05-02T03:49:32.392Z,32.20
2018-05-02T03:52:02.285Z,31.80
2018-05-02T03:54:31.863Z,32.00
2018-05-02T03:57:01.159Z,31.00
2018-05-02T03:59:41.888Z,30.60
2018-05-02T04:02:22.604Z,31.60
2018-05-02T04:05:03.192Z,32.20
2018-05-02T04:07:32.703Z,32.40
2018-05-02T04:10:02.493Z,31.00
2018-05-02T04:12:32.389Z,32.40
2018-05-02T04:15:02.209Z,31.80
2018-05-02T04:17:31.936Z,31.00
2018-05-02T04:20:01.982Z,29.20
2018-05-02T04:22:30.877Z,30.20
2018-05-02T04:25:00.193Z,30.60
2018-05-02T04:27:29.149Z,30.20
2018-05-02T04:29:58.552Z,31.00
2018-05-02T04:32:27.133Z,30.20
2018-05-02T04:34:56.257Z,30.20
2018-05-02T04:37:25.349Z,30.20
2018-05-02T04:39:55.767Z,30.00
2018-05-02T04:42:25.620Z,30.60
2018-05-02T04:44:56.148Z,29.80
2018-05-02T04:47:25.678Z,29.20
2018-05-02T04:49:55.082Z,28.20
2018-05-02T04:52:24.045Z,30.20
2018-05-02T04:57:49.275Z,31.20
2018-05-02T05:00:19.489Z,28.20
2018-05-02T05:02:49.133Z,31.20
2018-05-02T05:05:18.123Z,30.00
2018-05-02T05:07:46.972Z,30.00
2018-05-02T05:10:16.554Z,30.40
2018-05-02T05:12:45.892Z,28.20
2018-05-02T05:15:15.514Z,30.00
2018-05-02T05:17:44.979Z,30.40
2018-05-02T05:20:14.030Z,30.20
2018-05-02T05:22:43.509Z,31.40
2018-05-02T05:25:14.068Z,30.40
2018-05-02T05:27:43.427Z,32.60
2018-05-02T05:30:12.446Z,32.00
2018-05-02T05:32:41.618Z,30.80
2018-05-02T05:35:10.629Z,29.80
2018-05-02T05:37:40.496Z,31.60
2018-05-02T05:40:09.939Z,32.80
2018-05-02T05:42:40.207Z,31.80
2018-05-02T05:45:10.829Z,31.00
2018-05-02T05:47:41.710Z,31.80
2018-05-02T05:50:10.909Z,32.00
2018-05-02T05:52:41.158Z,31.20
2018-05-02T05:55:10.529Z,30.80
2018-05-02T05:57:39.527Z,31.80
2018-05-02T06:00:08.298Z,31.00
2018-05-02T06:02:37.399Z,31.00
2018-05-02T06:05:07.214Z,33.00
2018-05-02T06:07:36.878Z,31.00
2018-05-02T06:10:05.799Z,31.60
2018-05-02T06:12:35.034Z,31.40
2018-05-02T06:15:03.662Z,31.20
2018-05-02T06:17:32.267Z,31.80
2018-05-02T06:20:02.672Z,31.60
2018-05-02T06:22:32.163Z,31.60
2018-05-02T06:25:01.985Z,30.80
2018-05-02T06:27:31.316Z,31.00
2018-05-02T06:30:00.025Z,30.20
2018-05-02T06:32:29.859Z,31.80
2018-05-02T06:34:59.042Z,30.40
2018-05-02T06:37:28.443Z,29.80
2018-05-02T06:39:57.616Z,30.20
2018-05-02T06:42:27.457Z,30.40
2018-05-02T06:44:57.213Z,32.00
2018-05-02T06:47:26.832Z,31.60
2018-05-02T06:49:56.151Z,31.20
2018-05-02T06:52:25.639Z,28.40
2018-05-02T06:54:55.732Z,30.20
2018-05-02T06:57:25.062Z,29.60
2018-05-02T06:59:54.198Z,29.80
2018-05-02T07:02:23.248Z,32.20
2018-05-02T07:04:52.921Z,30.60
2018-05-02T07:07:22.625Z,31.20
2018-05-02T07:09:53.775Z,31.00
2018-05-02T07:12:23.902Z,31.20
2018-05-02T07:14:53.572Z,30.00
2018-05-02T07:17:23.341Z,31.00
2018-05-02T07:19:52.313Z,31.00
2018-05-02T07:22:22.293Z,30.20
2018-05-02T07:24:52.768Z,30.40
2018-05-02T07:27:21.885Z,29.80
2018-05-02T07:29:52.267Z,30.20
2018-05-02T07:32:21.174Z,30.20
2018-05-02T07:34:50.556Z,30.00
2018-05-02T07:37:20.939Z,30.00
2018-05-02T07:39:51.213Z,30.80
2018-05-02T07:42:21.094Z,30.40
2018-05-02T07:44:50.424Z,30.60
2018-05-02T07:47:20.238Z,29.60
2018-05-02T07:49:49.709Z,29.40
2018-05-02T07:52:19.200Z,29.60
2018-05-02T07:54:48.803Z,28.40
2018-05-02T07:57:18.594Z,27.40
2018-05-02T07:59:48.128Z,28.80
2018-05-02T08:02:18.327Z,28.60
2018-05-02T08:04:47.423Z,29.00
2018-05-02T08:07:16.535Z,28.80
2018-05-02T08:09:46.019Z,30.00
2018-05-02T08:12:15.285Z,29.40
2018-05-02T08:14:45.069Z,28.60
2018-05-02T08:17:14.130Z,29.40
2018-05-02T08:19:43.183Z,28.60
2018-05-02T08:22:12.752Z,28.60
2018-05-02T08:24:42.828Z,28.60
2018-05-02T08:27:13.141Z,28.80
2018-05-02T08:29:42.976Z,28.40
2018-05-02T08:32:12.625Z,28.00
2018-05-02T08:34:41.847Z,28.60
2018-05-02T08:37:10.662Z,28.60
2018-05-02T08:39:40.532Z,29.20
2018-05-02T08:42:10.294Z,29.00
2018-05-02T08:44:39.944Z,29.00
2018-05-02T09:08:07.891Z,28.00
2018-05-02T09:10:37.441Z,29.00
2018-05-02T09:13:07.154Z,26.20
2018-05-02T09:15:36.398Z,26.60
2018-05-02T09:18:06.461Z,26.80
2018-05-02T09:20:35.545Z,27.80
2018-05-02T09:23:04.545Z,27.20
2018-05-02T09:25:33.760Z,27.60
2018-05-02T09:28:02.829Z,26.80
2018-05-02T09:30:31.510Z,28.00
2018-05-02T09:33:00.701Z,27.60
2018-05-02T09:35:30.452Z,28.20
2018-05-02T09:38:00.101Z,28.60
2018-05-02T09:40:29.914Z,27.20
2018-05-02T09:43:00.040Z,26.80
2018-05-02T09:45:30.807Z,27.20
2018-05-02T09:48:00.603Z,28.20
2018-05-02T09:50:29.913Z,27.00
2018-05-02T09:52:58.915Z,27.20
2018-05-02T09:55:28.104Z,26.20
2018-05-02T09:57:57.997Z,28.20
2018-05-02T10:00:30.621Z,28.00
2018-05-02T10:02:59.772Z,27.20
2018-05-02T10:05:29.590Z,26.60
2018-05-02T10:07:58.766Z,27.20
2018-05-02T10:10:28.589Z,27.20
2018-05-02T10:12:58.471Z,27.20
2018-05-02T10:15:27.692Z,28.20
2018-05-02T10:17:56.675Z,28.20
2018-05-02T10:20:26.255Z,27.20
2018-05-02T10:22:55.877Z,26.40
2018-05-02T10:25:25.130Z,25.40
2018-05-02T10:27:54.625Z,26.20
2018-05-02T10:30:24.050Z,26.40
2018-05-02T10:32:53.819Z,26.60
2018-05-02T10:35:23.217Z,26.20
2018-05-02T10:37:52.694Z,26.20
2018-05-02T10:40:22.207Z,25.60
2018-05-02T10:42:51.737Z,26.60
2018-05-02T10:45:21.335Z,25.80
2018-05-02T10:47:52.724Z,26.00
2018-05-02T10:50:23.005Z,25.40
2018-05-02T10:52:52.849Z,25.60
2018-05-02T10:55:23.035Z,24.60
2018-05-02T10:57:52.473Z,23.20
2018-05-02T11:00:21.967Z,26.40
2018-05-02T11:02:52.118Z,27.20
2018-05-02T11:05:21.348Z,28.20
2018-05-02T11:07:51.049Z,28.00
2018-05-02T11:13:18.431Z,28.20
2018-05-02T11:15:48.587Z,28.40
2018-05-02T11:18:18.629Z,27.20
2018-05-02T11:20:48.071Z,25.60
2018-05-02T11:23:17.139Z,28.00
2018-05-02T11:25:48.137Z,27.20
2018-05-02T11:28:17.586Z,27.80
2018-05-02T11:30:48.337Z,24.80
2018-05-02T11:33:17.957Z,25.60
2018-05-02T11:35:48.049Z,25.60
2018-05-02T11:38:17.805Z,26.20
2018-05-02T11:40:47.021Z,25.00
2018-05-02T11:43:15.655Z,27.80
2018-05-02T11:45:45.202Z,26.20
2018-05-02T11:48:15.895Z,24.60
2018-05-02T11:50:45.460Z,26.20
2018-05-02T11:53:14.864Z,24.60
2018-05-02T11:55:44.402Z,25.80
2018-05-02T11:58:13.892Z,24.60
2018-05-02T12:00:43.664Z,25.60
2018-05-02T12:03:12.985Z,25.40
2018-05-02T12:05:41.844Z,26.80
2018-05-02T12:08:11.256Z,27.40
2018-05-02T12:10:40.815Z,24.00
2018-05-02T12:13:09.655Z,24.60
2018-05-02T12:15:38.986Z,26.60
2018-05-02T12:18:08.819Z,26.20
2018-05-02T12:20:37.847Z,25.80
2018-05-02T12:23:08.579Z,26.20
2018-05-02T12:25:38.665Z,24.20
2018-05-02T12:28:08.275Z,23.20
2018-05-02T12:30:37.857Z,24.80
2018-05-02T12:33:06.839Z,26.80
2018-05-02T12:35:36.285Z,26.20
2018-05-02T12:38:06.202Z,24.80
2018-05-02T12:40:35.153Z,24.40
2018-05-02T12:43:04.892Z,23.40
2018-05-02T12:45:33.704Z,25.40
2018-05-02T12:48:03.163Z,25.40
2018-05-02T12:50:32.960Z,24.40
2018-05-02T12:53:02.725Z,23.20
2018-05-02T12:55:32.318Z,23.60
2018-05-02T12:58:01.482Z,24.00
2018-05-02T13:00:30.233Z,25.60
2018-05-02T13:03:00.065Z,24.00
2018-05-02T13:05:29.939Z,23.40
2018-05-02T13:07:59.101Z,26.00
2018-05-02T13:10:28.159Z,27.80
2018-05-02T13:12:57.833Z,28.00
2018-05-02T13:15:27.041Z,26.20
2018-05-02T13:17:56.867Z,27.60
2018-05-02T13:20:26.583Z,26.20
2018-05-02T13:22:56.095Z,27.20
2018-05-02T13:25:25.591Z,27.80
2018-05-02T13:27:54.975Z,27.60
2018-05-02T13:30:24.871Z,27.80
2018-05-02T13:32:53.987Z,26.20
2018-05-02T13:35:23.269Z,26.00
2018-05-02T13:37:52.634Z,26.20
2018-05-02T13:40:22.332Z,26.20
2018-05-02T13:42:51.713Z,23.00
2018-05-02T13:45:21.234Z,28.00
2018-05-02T13:47:51.087Z,28.20
2018-05-02T13:50:20.722Z,26.60
2018-05-02T13:52:51.528Z,27.40
2018-05-02T13:55:20.602Z,26.20
2018-05-02T13:57:49.927Z,27.00
2018-05-02T14:00:19.712Z,27.20
2018-05-02T14:02:48.651Z,28.20
2018-05-02T14:05:18.271Z,28.20
2018-05-02T14:07:48.062Z,27.40
2018-05-02T14:10:17.177Z,28.20
2018-05-02T14:12:46.802Z,27.60
2018-05-02T14:15:16.285Z,27.60
2018-05-02T14:17:45.762Z,28.20
2018-05-02T14:20:15.346Z,28.20
2018-05-02T14:22:45.800Z,28.20
2018-05-02T14:25:15.199Z,27.60
2018-05-02T14:27:45.088Z,27.40
2018-05-02T14:30:14.799Z,27.80
2018-05-02T14:32:44.059Z,28.00
2018-05-02T14:35:14.298Z,28.00
2018-05-02T14:37:44.446Z,26.00
2018-05-02T14:40:13.457Z,28.20
2018-05-02T14:42:42.978Z,28.00
2018-05-02T14:45:12.467Z,28.40
2018-05-02T14:47:42.450Z,28.40
2018-05-02T14:50:11.405Z,26.20
2018-05-02T14:52:40.744Z,27.20
2018-05-02T14:55:11.339Z,28.40
2018-05-02T14:57:40.900Z,29.00
2018-05-02T15:00:10.493Z,28.20
2018-05-02T15:02:40.480Z,28.20
2018-05-02T15:05:09.617Z,28.00
2018-05-02T15:07:39.094Z,27.60
2018-05-02T15:10:08.997Z,26.80
2018-05-02T15:12:38.289Z,25.60
2018-05-02T15:15:08.211Z,19.80
2018-05-02T15:17:37.528Z,21.60
2018-05-02T15:20:06.772Z,20.20
2018-05-02T15:22:36.418Z,19.40
2018-05-02T15:25:05.845Z,19.80
2018-05-02T15:27:36.314Z,19.60
2018-05-02T15:30:05.760Z,18.20
2018-05-02T15:32:35.224Z,18.60
2018-05-02T15:35:04.680Z,15.40
2018-05-02T15:37:34.384Z,16.20
2018-05-02T15:40:03.488Z,14.40
2018-05-02T15:42:32.799Z,15.20
2018-05-02T15:45:02.163Z,13.80
2018-05-02T15:47:31.157Z,15.00
2018-05-02T15:50:00.460Z,14.80
2018-05-02T15:52:30.323Z,14.20
2018-05-02T15:54:59.025Z,14.80
2018-05-02T15:57:29.980Z,11.60
2018-05-02T15:59:59.526Z,10.00
2018-05-02T16:02:29.994Z,10.60
2018-05-02T16:04:59.338Z,10.20
2018-05-02T16:07:29.073Z,9.00
2018-05-02T16:09:58.244Z,10.00
2018-05-02T16:12:27.822Z,12.20
2018-05-02T16:14:56.797Z,11.20
2018-05-02T16:17:26.440Z,12.40
2018-05-02T16:19:56.175Z,12.80
2018-05-02T16:22:25.139Z,12.40
2018-05-02T16:24:54.297Z,12.20
2018-05-02T16:27:23.477Z,12.20
2018-05-02T16:29:52.962Z,12.80
2018-05-02T16:32:22.192Z,16.00
2018-05-02T16:34:51.642Z,11.00
2018-05-02T16:37:21.382Z,10.40
2018-05-02T16:39:51.319Z,10.20
2018-05-02T16:42:20.768Z,10.60
2018-05-02T16:44:50.134Z,10.80
2018-05-02T16:47:19.645Z,10.40
2018-05-02T16:49:49.079Z,11.00
2018-05-02T16:52:18.385Z,10.00
2018-05-02T16:54:47.499Z,10.60
2018-05-02T16:57:17.117Z,9.20
2018-05-02T16:59:48.457Z,10.80
2018-05-02T17:02:17.621Z,9.00
2018-05-02T17:04:47.061Z,10.40
2018-05-02T17:07:16.516Z,8.20
2018-05-02T17:09:45.831Z,8.60
2018-05-02T17:12:15.994Z,9.00
2018-05-02T17:14:45.373Z,8.00
2018-05-02T17:17:14.857Z,8.20
2018-05-02T17:19:43.768Z,6.40
2018-05-02T17:22:12.936Z,7.20
2018-05-02T17:24:42.690Z,6.80
2018-05-02T17:27:12.509Z,6.20
2018-05-02T17:29:42.031Z,6.60
2018-05-02T17:32:11.393Z,5.00
2018-05-02T17:34:41.141Z,5.00
2018-05-02T17:37:10.461Z,6.80
2018-05-02T17:39:39.804Z,6.20
2018-05-02T17:42:08.881Z,5.00
2018-05-02T17:44:38.599Z,5.00
2018-05-02T17:47:07.490Z,5.00
2018-05-02T17:49:38.252Z,4.60
2018-05-02T17:52:07.456Z,5.00
2018-05-02T17:54:36.567Z,6.00
2018-05-02T17:57:06.519Z,5.00
2018-05-02T17:59:35.911Z,5.00
2018-05-02T18:02:04.896Z,5.00
2018-05-02T18:04:34.077Z,5.60
2018-05-02T18:07:03.837Z,6.00
2018-05-02T18:09:33.064Z,4.80
2018-05-02T18:12:02.644Z,5.00
2018-05-02T18:14:32.242Z,5.00
2018-05-02T18:17:01.290Z,5.00
2018-05-02T18:19:30.091Z,4.40
2018-05-02T18:21:59.604Z,4.20
2018-05-02T18:24:29.318Z,3.00
2018-05-02T18:26:59.142Z,4.80
2018-05-02T18:29:28.335Z,5.00
2018-05-02T18:31:58.047Z,4.40
2018-05-02T18:34:27.216Z,5.00
2018-05-02T18:36:56.019Z,4.40
2018-05-02T18:39:25.129Z,4.60
2018-05-02T18:41:54.283Z,5.00
2018-05-02T18:44:23.965Z,4.00
2018-05-02T18:46:52.742Z,5.00
2018-05-02T18:49:21.297Z,4.00
2018-05-02T18:51:52.394Z,5.20
2018-05-02T18:54:21.815Z,4.40
2018-05-02T18:56:51.448Z,3.80
2018-05-02T18:59:20.601Z,3.80
2018-05-02T19:01:50.128Z,6.00
2018-05-02T19:04:19.504Z,4.60
2018-05-02T19:06:48.752Z,4.40
2018-05-02T19:09:18.086Z,4.60
2018-05-02T19:11:47.803Z,4.00
2018-05-02T19:14:17.160Z,4.20
2018-05-02T19:16:46.495Z,5.20
2018-05-02T19:19:21.284Z,4.40
2018-05-02T19:21:50.689Z,4.20
2018-05-02T19:24:25.723Z,5.00
2018-05-02T19:29:32.190Z,4.80
2018-05-02T19:32:06.997Z,3.60
2018-05-02T19:34:36.411Z,4.80
2018-05-02T19:37:05.572Z,5.20
2018-05-02T19:39:40.133Z,6.20
2018-05-02T19:42:14.648Z,4.40
2018-05-02T19:44:44.333Z,5.00
2018-05-02T19:47:14.070Z,5.00
2018-05-02T19:49:42.877Z,5.60
2018-05-02T19:52:18.842Z,5.20
2018-05-02T19:54:48.086Z,5.20
2018-05-02T19:57:16.707Z,5.00
2018-05-02T19:59:46.247Z,5.00
2018-05-02T20:02:20.678Z,5.80
2018-05-02T20:04:49.587Z,5.00
2018-05-02T20:07:25.473Z,4.40
2018-05-02T20:10:00.900Z,5.00
2018-05-02T20:12:35.424Z,4.00
2018-05-02T20:15:06.283Z,4.60
2018-05-02T20:17:36.055Z,4.60
2018-05-02T20:20:06.268Z,4.20
2018-05-02T20:22:35.411Z,4.80
2018-05-02T20:25:04.978Z,4.80
2018-05-02T20:27:34.885Z,6.00
2018-05-02T20:30:04.088Z,4.60
2018-05-02T20:32:33.092Z,4.80
2018-05-02T20:35:02.619Z,6.00
2018-05-02T20:37:31.334Z,5.20
2018-05-02T20:40:00.845Z,4.00
2018-05-02T20:42:30.466Z,4.00
2018-05-02T20:44:59.781Z,5.00
2018-05-02T20:47:29.447Z,4.80
2018-05-02T20:49:58.546Z,4.20
2018-05-02T20:52:29.011Z,4.80
2018-05-02T20:54:58.880Z,5.00
2018-05-02T20:57:27.877Z,5.00
2018-05-02T20:59:58.045Z,4.80
2018-05-02T21:02:27.288Z,4.00
2018-05-02T21:04:56.895Z,5.40
2018-05-02T21:07:26.743Z,5.20
2018-05-02T21:09:56.097Z,6.00
2018-05-02T21:12:26.829Z,4.60
2018-05-02T21:14:56.201Z,4.80
2018-05-02T21:17:24.913Z,5.20
2018-05-02T21:19:54.874Z,5.00
2018-05-02T21:22:23.834Z,5.00
2018-05-02T21:24:53.688Z,5.00
2018-05-02T21:27:22.669Z,4.00
2018-05-02T21:29:51.549Z,5.20
2018-05-02T21:32:21.175Z,5.00
2018-05-02T21:34:49.692Z,5.00
2018-05-02T21:37:18.462Z,5.40
2018-05-02T21:39:47.827Z,5.20
2018-05-02T21:42:17.299Z,5.00
2018-05-02T21:44:46.081Z,5.40
2018-05-02T21:47:15.340Z,5.60
2018-05-02T21:49:44.829Z,4.00
2018-05-02T21:52:13.939Z,6.00
2018-05-02T21:54:44.479Z,5.00
2018-05-02T21:57:13.587Z,4.80
2018-05-02T21:59:42.702Z,5.00
2018-05-02T22:02:11.650Z,4.80
2018-05-02T22:04:41.103Z,6.00
2018-05-02T22:07:10.153Z,6.00
2018-05-02T22:09:40.309Z,4.00
2018-05-02T22:12:09.586Z,6.00
2018-05-02T22:14:39.054Z,5.60
2018-05-02T22:17:08.389Z,5.00
2018-05-02T22:19:38.053Z,6.00
2018-05-02T22:22:07.811Z,4.20
2018-05-02T22:24:37.654Z,5.00
2018-05-02T22:27:06.792Z,5.00
2018-05-02T22:29:35.890Z,5.00
2018-05-02T22:32:05.439Z,4.80
2018-05-02T22:34:35.246Z,4.80
2018-05-02T22:37:04.697Z,5.00
2018-05-02T22:39:33.457Z,4.80
2018-05-02T22:42:02.387Z,4.00
2018-05-02T22:44:31.549Z,5.20
2018-05-02T22:47:00.764Z,5.20
2018-05-02T22:49:29.750Z,3.40
2018-05-02T22:51:59.598Z,4.60
2018-05-02T22:54:28.355Z,4.20
2018-05-02T22:56:59.156Z,5.20
2018-05-02T22:59:27.981Z,5.40
2018-05-02T23:01:56.638Z,5.00
2018-05-02T23:04:25.803Z,4.20
2018-05-02T23:06:54.661Z,3.20
2018-05-02T23:09:23.451Z,5.00
2018-05-02T23:11:53.028Z,4.00
2018-05-02T23:14:22.077Z,6.00
2018-05-02T23:16:51.794Z,6.60
2018-05-02T23:19:21.063Z,6.60
2018-05-02T23:21:50.145Z,6.80
2018-05-02T23:24:19.505Z,6.60
2018-05-02T23:26:48.828Z,7.20
2018-05-02T23:29:18.191Z,7.00
2018-05-02T23:31:47.657Z,5.80
2018-05-02T23:34:17.029Z,7.80
2018-05-02T23:36:46.149Z,6.20
2018-05-02T23:39:15.487Z,3.80
2018-05-02T23:41:44.360Z,5.40
2018-05-02T23:44:13.714Z,6.00
2018-05-02T23:46:43.267Z,6.20
2018-05-02T23:49:12.603Z,5.00
2018-05-02T23:51:42.421Z,6.20
2018-05-02T23:54:11.513Z,6.80
2018-05-02T23:56:40.608Z,5.60
2018-05-02T23:59:11.328Z,5.80
